sensor_id;sensor_type;location;lat;lon;timestamp;pressure;altitude;pressure_sealevel;temperature;humidity
79198;BME280;68628;48.714;9.472;2023-04-24T00:00:55;97077.16;;;10.59;80.23
79198;BME280;68628;48.714;9.472;2023-04-24T00:03:26;97070.47;;;10.57;81.00
79198;BME280;68628;48.714;9.472;2023-04-24T00:05:54;97070.31;;;10.65;79.72
79198;BME280;68628;48.714;9.472;2023-04-24T00:08:20;97062.19;;;10.66;79.34
79198;BME280;68628;48.714;9.472;2023-04-24T00:10:46;97066.03;;;10.64;78.80
79198;BME280;68628;48.714;9.472;2023-04-24T00:13:11;97071.09;;;10.65;78.28
79198;BME280;68628;48.714;9.472;2023-04-24T00:15:38;97065.84;;;10.65;78.61
79198;BME280;68628;48.714;9.472;2023-04-24T00:18:04;97066.63;;;10.59;78.48
79198;BME280;68628;48.714;9.472;2023-04-24T00:20:30;97077.38;;;10.51;79.26
79198;BME280;68628;48.714;9.472;2023-04-24T00:22:57;97081.84;;;10.57;80.19
79198;BME280;68628;48.714;9.472;2023-04-24T00:25:23;97079.44;;;10.56;80.08
79198;BME280;68628;48.714;9.472;2023-04-24T00:27:48;97073.13;;;10.50;81.66
79198;BME280;68628;48.714;9.472;2023-04-24T00:30:14;97084.69;;;10.56;81.66
79198;BME280;68628;48.714;9.472;2023-04-24T00:32:40;97083.88;;;10.62;80.99
79198;BME280;68628;48.714;9.472;2023-04-24T00:35:06;97086.72;;;10.54;80.76
79198;BME280;68628;48.714;9.472;2023-04-24T00:37:32;97086.91;;;10.59;80.59
79198;BME280;68628;48.714;9.472;2023-04-24T00:39:58;97087.31;;;10.76;79.43
79198;BME280;68628;48.714;9.472;2023-04-24T00:42:24;97077.16;;;10.86;78.11
79198;BME280;68628;48.714;9.472;2023-04-24T00:44:50;97073.09;;;10.77;78.22
79198;BME280;68628;48.714;9.472;2023-04-24T00:47:16;97077.97;;;10.87;77.80
79198;BME280;68628;48.714;9.472;2023-04-24T00:49:42;97075.56;;;10.85;77.34
79198;BME280;68628;48.714;9.472;2023-04-24T00:52:08;97071.31;;;10.64;78.58
79198;BME280;68628;48.714;9.472;2023-04-24T00:54:34;97069.88;;;10.75;79.94
79198;BME280;68628;48.714;9.472;2023-04-24T00:57:02;97075.94;;;10.69;80.61
79198;BME280;68628;48.714;9.472;2023-04-24T00:59:29;97071.69;;;10.61;82.20
79198;BME280;68628;48.714;9.472;2023-04-24T01:01:57;97069.47;;;10.51;82.38
79198;BME280;68628;48.714;9.472;2023-04-24T01:04:24;97067.03;;;10.63;82.17
79198;BME280;68628;48.714;9.472;2023-04-24T01:06:51;97070.28;;;10.45;82.64
79198;BME280;68628;48.714;9.472;2023-04-24T01:09:18;97059.38;;;10.41;83.62
79198;BME280;68628;48.714;9.472;2023-04-24T01:11:46;97059.75;;;10.38;83.58
79198;BME280;68628;48.714;9.472;2023-04-24T01:14:12;97050.25;;;10.44;83.25
79198;BME280;68628;48.714;9.472;2023-04-24T01:16:38;97060.78;;;10.57;82.41
79198;BME280;68628;48.714;9.472;2023-04-24T01:19:06;97055.91;;;10.54;82.75
79198;BME280;68628;48.714;9.472;2023-04-24T01:21:36;97041.72;;;10.48;82.09
79198;BME280;68628;48.714;9.472;2023-04-24T01:24:06;97053.69;;;10.38;82.48
79198;BME280;68628;48.714;9.472;2023-04-24T01:26:32;97047.00;;;10.42;82.47
79198;BME280;68628;48.714;9.472;2023-04-24T01:28:59;97041.72;;;10.42;82.90
79198;BME280;68628;48.714;9.472;2023-04-24T01:31:25;97040.09;;;10.47;82.62
79198;BME280;68628;48.714;9.472;2023-04-24T01:33:52;97044.75;;;10.25;84.39
79198;BME280;68628;48.714;9.472;2023-04-24T01:36:18;97043.50;;;10.28;84.20
79198;BME280;68628;48.714;9.472;2023-04-24T01:38:46;97039.06;;;10.15;84.19
79198;BME280;68628;48.714;9.472;2023-04-24T01:41:11;97038.84;;;10.30;84.35
79198;BME280;68628;48.714;9.472;2023-04-24T01:43:37;97036.00;;;10.25;84.49
79198;BME280;68628;48.714;9.472;2023-04-24T01:46:03;97040.88;;;10.21;84.13
79198;BME280;68628;48.714;9.472;2023-04-24T01:48:31;97033.16;;;10.20;84.72
79198;BME280;68628;48.714;9.472;2023-04-24T01:50:57;97036.63;;;10.33;83.60
79198;BME280;68628;48.714;9.472;2023-04-24T01:53:22;97037.22;;;10.22;84.48
79198;BME280;68628;48.714;9.472;2023-04-24T01:55:48;97045.97;;;10.36;83.33
79198;BME280;68628;48.714;9.472;2023-04-24T01:58:14;97037.44;;;10.27;83.89
79198;BME280;68628;48.714;9.472;2023-04-24T02:00:39;97036.63;;;10.13;83.82
79198;BME280;68628;48.714;9.472;2023-04-24T02:03:05;97043.28;;;10.16;84.72
79198;BME280;68628;48.714;9.472;2023-04-24T02:05:31;97051.81;;;10.18;84.12
79198;BME280;68628;48.714;9.472;2023-04-24T02:07:56;97050.59;;;10.27;83.99
79198;BME280;68628;48.714;9.472;2023-04-24T02:10:22;97045.53;;;10.32;83.43
79198;BME280;68628;48.714;9.472;2023-04-24T02:12:47;97039.28;;;10.33;83.09
79198;BME280;68628;48.714;9.472;2023-04-24T02:15:13;97039.28;;;10.33;82.33
79198;BME280;68628;48.714;9.472;2023-04-24T02:17:39;97031.81;;;10.44;81.35
79198;BME280;68628;48.714;9.472;2023-04-24T02:20:06;97030.97;;;10.43;80.96
79198;BME280;68628;48.714;9.472;2023-04-24T02:22:32;97028.97;;;10.39;79.21
79198;BME280;68628;48.714;9.472;2023-04-24T02:24:57;97030.56;;;10.40;78.27
79198;BME280;68628;48.714;9.472;2023-04-24T02:27:23;97029.78;;;10.46;78.59
79198;BME280;68628;48.714;9.472;2023-04-24T02:29:48;97037.47;;;10.54;81.32
79198;BME280;68628;48.714;9.472;2023-04-24T02:32:14;97041.31;;;10.45;81.47
79198;BME280;68628;48.714;9.472;2023-04-24T02:34:40;97038.88;;;10.37;81.50
79198;BME280;68628;48.714;9.472;2023-04-24T02:37:06;97041.69;;;10.28;82.02
79198;BME280;68628;48.714;9.472;2023-04-24T02:39:32;97044.13;;;10.23;83.75
79198;BME280;68628;48.714;9.472;2023-04-24T02:41:57;97036.44;;;10.22;83.79
79198;BME280;68628;48.714;9.472;2023-04-24T02:44:23;97043.91;;;10.31;82.76
79198;BME280;68628;48.714;9.472;2023-04-24T02:46:49;97038.06;;;10.29;83.93
79198;BME280;68628;48.714;9.472;2023-04-24T02:49:14;97036.63;;;10.20;83.45
79198;BME280;68628;48.714;9.472;2023-04-24T02:51:40;97037.84;;;10.24;82.56
79198;BME280;68628;48.714;9.472;2023-04-24T02:54:07;97041.06;;;10.20;80.23
79198;BME280;68628;48.714;9.472;2023-04-24T02:56:34;97038.66;;;10.18;79.01
79198;BME280;68628;48.714;9.472;2023-04-24T02:59:00;97030.97;;;10.23;78.37
79198;BME280;68628;48.714;9.472;2023-04-24T03:01:26;97036.22;;;10.30;78.47
79198;BME280;68628;48.714;9.472;2023-04-24T03:03:51;97038.66;;;10.31;78.17
79198;BME280;68628;48.714;9.472;2023-04-24T03:06:19;97039.09;;;10.35;78.00
79198;BME280;68628;48.714;9.472;2023-04-24T03:08:46;97033.63;;;10.37;78.44
79198;BME280;68628;48.714;9.472;2023-04-24T03:11:11;97029.16;;;10.37;78.78
79198;BME280;68628;48.714;9.472;2023-04-24T03:13:37;97028.34;;;10.43;77.97
79198;BME280;68628;48.714;9.472;2023-04-24T03:16:02;97029.34;;;10.36;78.07
79198;BME280;68628;48.714;9.472;2023-04-24T03:18:28;97032.81;;;10.36;79.98
79198;BME280;68628;48.714;9.472;2023-04-24T03:20:54;97032.38;;;10.19;82.25
79198;BME280;68628;48.714;9.472;2023-04-24T03:23:19;97035.00;;;10.19;82.40
79198;BME280;68628;48.714;9.472;2023-04-24T03:25:45;97028.94;;;10.25;82.03
79198;BME280;68628;48.714;9.472;2023-04-24T03:28:10;97023.88;;;10.37;79.72
79198;BME280;68628;48.714;9.472;2023-04-24T03:30:36;97032.59;;;10.44;79.48
79198;BME280;68628;48.714;9.472;2023-04-24T03:33:02;97037.88;;;10.38;79.46
79198;BME280;68628;48.714;9.472;2023-04-24T03:35:27;97029.78;;;10.46;77.98
79198;BME280;68628;48.714;9.472;2023-04-24T03:37:53;97028.97;;;10.52;78.21
79198;BME280;68628;48.714;9.472;2023-04-24T03:40:18;97029.19;;;10.44;79.20
79198;BME280;68628;48.714;9.472;2023-04-24T03:42:44;97025.50;;;10.45;78.43
79198;BME280;68628;48.714;9.472;2023-04-24T03:45:09;97023.28;;;10.48;78.07
79198;BME280;68628;48.714;9.472;2023-04-24T03:47:35;97028.13;;;10.45;79.06
79198;BME280;68628;48.714;9.472;2023-04-24T03:50:04;97033.41;;;10.38;79.62
79198;BME280;68628;48.714;9.472;2023-04-24T03:52:30;97028.75;;;10.40;78.46
79198;BME280;68628;48.714;9.472;2023-04-24T03:54:56;97026.94;;;10.41;78.82
79198;BME280;68628;48.714;9.472;2023-04-24T03:57:21;97037.03;;;10.30;78.89
79198;BME280;68628;48.714;9.472;2023-04-24T03:59:47;97031.38;;;10.27;79.40
79198;BME280;68628;48.714;9.472;2023-04-24T04:02:13;97028.94;;;10.32;79.16
79198;BME280;68628;48.714;9.472;2023-04-24T04:04:38;97036.63;;;10.33;79.27
79198;BME280;68628;48.714;9.472;2023-04-24T04:07:04;97036.22;;;10.30;79.19
79198;BME280;68628;48.714;9.472;2023-04-24T04:09:30;97035.59;;;10.28;78.94
79198;BME280;68628;48.714;9.472;2023-04-24T04:11:56;97039.66;;;10.24;79.53
79198;BME280;68628;48.714;9.472;2023-04-24T04:14:22;97041.69;;;10.15;79.71
79198;BME280;68628;48.714;9.472;2023-04-24T04:16:48;97044.31;;;10.15;79.38
79198;BME280;68628;48.714;9.472;2023-04-24T04:19:14;97047.53;;;10.10;79.54
79198;BME280;68628;48.714;9.472;2023-04-24T04:21:39;97050.78;;;9.99;79.52
79198;BME280;68628;48.714;9.472;2023-04-24T04:24:05;97053.22;;;10.00;80.09
79198;BME280;68628;48.714;9.472;2023-04-24T04:26:32;97053.78;;;9.96;80.11
79198;BME280;68628;48.714;9.472;2023-04-24T04:28:59;97053.22;;;10.00;80.59
79198;BME280;68628;48.714;9.472;2023-04-24T04:31:26;97054.84;;;10.02;80.74
79198;BME280;68628;48.714;9.472;2023-04-24T04:33:51;97053.22;;;10.00;80.66
79198;BME280;68628;48.714;9.472;2023-04-24T04:36:17;97056.06;;;10.06;81.02
79198;BME280;68628;48.714;9.472;2023-04-24T04:38:43;97059.50;;;10.13;81.15
79198;BME280;68628;48.714;9.472;2023-04-24T04:41:10;97062.13;;;10.20;80.58
79198;BME280;68628;48.714;9.472;2023-04-24T04:43:36;97064.38;;;10.23;80.79
79198;BME280;68628;48.714;9.472;2023-04-24T04:46:01;97067.19;;;10.28;79.95
79198;BME280;68628;48.714;9.472;2023-04-24T04:48:28;97062.75;;;10.28;79.39
79198;BME280;68628;48.714;9.472;2023-04-24T04:50:57;97077.13;;;10.32;79.43
79198;BME280;68628;48.714;9.472;2023-04-24T04:53:23;97080.22;;;10.43;78.14
79198;BME280;68628;48.714;9.472;2023-04-24T04:55:49;97093.59;;;10.41;79.44
79198;BME280;68628;48.714;9.472;2023-04-24T04:58:15;97094.94;;;10.30;80.54
79198;BME280;68628;48.714;9.472;2023-04-24T05:00:40;97141.91;;;10.13;81.95
79198;BME280;68628;48.714;9.472;2023-04-24T05:03:06;97152.69;;;10.25;80.97
79198;BME280;68628;48.714;9.472;2023-04-24T05:05:32;97149.13;;;9.91;79.03
79198;BME280;68628;48.714;9.472;2023-04-24T05:07:57;97148.47;;;9.82;79.43
79198;BME280;68628;48.714;9.472;2023-04-24T05:10:23;97152.84;;;9.62;80.48
79198;BME280;68628;48.714;9.472;2023-04-24T05:12:49;97147.88;;;9.39;79.18
79198;BME280;68628;48.714;9.472;2023-04-24T05:15:14;97148.47;;;9.34;81.34
79198;BME280;68628;48.714;9.472;2023-04-24T05:17:40;97147.72;;;9.54;81.07
79198;BME280;68628;48.714;9.472;2023-04-24T05:20:07;97163.59;;;9.32;80.88
79198;BME280;68628;48.714;9.472;2023-04-24T05:22:33;97155.75;;;9.39;80.55
79198;BME280;68628;48.714;9.472;2023-04-24T05:24:59;97161.53;;;9.27;81.25
79198;BME280;68628;48.714;9.472;2023-04-24T05:27:24;97167.91;;;9.11;82.46
79198;BME280;68628;48.714;9.472;2023-04-24T05:29:50;97165.31;;;9.18;82.05
79198;BME280;68628;48.714;9.472;2023-04-24T05:32:16;97168.13;;;9.16;82.62
79198;BME280;68628;48.714;9.472;2023-04-24T05:34:41;97179.47;;;9.17;82.97
79198;BME280;68628;48.714;9.472;2023-04-24T05:37:08;97187.78;;;8.92;83.20
79198;BME280;68628;48.714;9.472;2023-04-24T05:39:36;97199.03;;;9.08;82.58
79198;BME280;68628;48.714;9.472;2023-04-24T05:42:02;97204.63;;;9.05;83.41
79198;BME280;68628;48.714;9.472;2023-04-24T05:44:30;97196.25;;;9.16;83.24
79198;BME280;68628;48.714;9.472;2023-04-24T05:46:56;97195.75;;;9.06;83.37
79198;BME280;68628;48.714;9.472;2023-04-24T05:49:22;97201.03;;;9.06;81.69
79198;BME280;68628;48.714;9.472;2023-04-24T05:51:48;97212.97;;;9.08;83.31
79198;BME280;68628;48.714;9.472;2023-04-24T05:54:14;97221.28;;;9.12;83.66
79198;BME280;68628;48.714;9.472;2023-04-24T05:56:40;97217.53;;;9.21;83.15
79198;BME280;68628;48.714;9.472;2023-04-24T05:59:06;97224.63;;;9.27;82.89
79198;BME280;68628;48.714;9.472;2023-04-24T06:01:33;97228.88;;;9.28;82.18
79198;BME280;68628;48.714;9.472;2023-04-24T06:03:58;97232.63;;;9.41;81.95
79198;BME280;68628;48.714;9.472;2023-04-24T06:06:24;97238.88;;;9.40;82.78
79198;BME280;68628;48.714;9.472;2023-04-24T06:08:51;97235.72;;;9.51;82.78
79198;BME280;68628;48.714;9.472;2023-04-24T06:11:17;97238.78;;;9.55;82.13
79198;BME280;68628;48.714;9.472;2023-04-24T06:13:42;97231.09;;;9.53;81.97
79198;BME280;68628;48.714;9.472;2023-04-24T06:16:08;97229.78;;;9.71;81.32
79198;BME280;68628;48.714;9.472;2023-04-24T06:18:34;97232.41;;;9.71;81.98
79198;BME280;68628;48.714;9.472;2023-04-24T06:20:59;97234.22;;;9.70;82.08
79198;BME280;68628;48.714;9.472;2023-04-24T06:23:25;97237.69;;;9.77;81.26
79198;BME280;68628;48.714;9.472;2023-04-24T06:25:51;97243.03;;;9.91;80.65
79198;BME280;68628;48.714;9.472;2023-04-24T06:28:17;97229.69;;;9.86;80.92
79198;BME280;68628;48.714;9.472;2023-04-24T06:30:42;97230.47;;;9.86;81.68
79198;BME280;68628;48.714;9.472;2023-04-24T06:33:08;97229.38;;;10.09;80.27
79198;BME280;68628;48.714;9.472;2023-04-24T06:35:34;97238.38;;;10.34;80.01
79198;BME280;68628;48.714;9.472;2023-04-24T06:38:00;97242.50;;;10.44;79.05
79198;BME280;68628;48.714;9.472;2023-04-24T06:40:26;97231.97;;;10.50;76.54
79198;BME280;68628;48.714;9.472;2023-04-24T06:42:51;97227.06;;;10.41;77.18
79198;BME280;68628;48.714;9.472;2023-04-24T06:45:18;97230.38;;;10.56;77.87
79198;BME280;68628;48.714;9.472;2023-04-24T06:47:43;97227.50;;;10.51;77.07
79198;BME280;68628;48.714;9.472;2023-04-24T06:50:09;97233.84;;;10.77;76.88
79198;BME280;68628;48.714;9.472;2023-04-24T06:52:36;97227.41;;;10.99;74.17
79198;BME280;68628;48.714;9.472;2023-04-24T06:55:03;97236.69;;;10.75;76.99
79198;BME280;68628;48.714;9.472;2023-04-24T06:57:30;97234.06;;;11.56;75.25
79198;BME280;68628;48.714;9.472;2023-04-24T06:59:56;97226.19;;;11.36;71.23
79198;BME280;68628;48.714;9.472;2023-04-24T07:02:22;97233.00;;;11.77;70.47
79198;BME280;68628;48.714;9.472;2023-04-24T07:04:48;97234.00;;;12.03;69.50
79198;BME280;68628;48.714;9.472;2023-04-24T07:07:14;97227.31;;;12.45;67.22
79198;BME280;68628;48.714;9.472;2023-04-24T07:09:41;97223.31;;;12.29;69.56
79198;BME280;68628;48.714;9.472;2023-04-24T07:12:11;97228.25;;;12.58;69.94
79198;BME280;68628;48.714;9.472;2023-04-24T07:14:37;97232.06;;;12.30;69.61
79198;BME280;68628;48.714;9.472;2023-04-24T07:17:04;97234.16;;;12.60;70.66
79198;BME280;68628;48.714;9.472;2023-04-24T07:19:33;97241.03;;;12.68;69.13
79198;BME280;68628;48.714;9.472;2023-04-24T07:22:00;97244.38;;;11.91;71.63
79198;BME280;68628;48.714;9.472;2023-04-24T07:24:26;97234.31;;;11.27;72.07
79198;BME280;68628;48.714;9.472;2023-04-24T07:26:53;97229.41;;;11.24;72.19
79198;BME280;68628;48.714;9.472;2023-04-24T07:29:19;97224.53;;;11.48;71.32
79198;BME280;68628;48.714;9.472;2023-04-24T07:31:46;97227.19;;;11.21;72.49
79198;BME280;68628;48.714;9.472;2023-04-24T07:34:12;97229.59;;;11.63;72.38
79198;BME280;68628;48.714;9.472;2023-04-24T07:36:37;97225.16;;;11.43;73.07
79198;BME280;68628;48.714;9.472;2023-04-24T07:39:04;97221.94;;;11.01;72.64
79198;BME280;68628;48.714;9.472;2023-04-24T07:41:31;97223.50;;;10.69;74.43
79198;BME280;68628;48.714;9.472;2023-04-24T07:43:59;97235.25;;;10.66;73.96
79198;BME280;68628;48.714;9.472;2023-04-24T07:46:25;97252.09;;;10.65;75.23
79198;BME280;68628;48.714;9.472;2023-04-24T07:48:52;97255.13;;;10.75;77.78
79198;BME280;68628;48.714;9.472;2023-04-24T07:51:19;97274.75;;;10.66;78.19
79198;BME280;68628;48.714;9.472;2023-04-24T07:53:44;97266.41;;;10.49;78.71
79198;BME280;68628;48.714;9.472;2023-04-24T07:56:12;97287.38;;;10.29;78.27
79198;BME280;68628;48.714;9.472;2023-04-24T07:58:38;97280.69;;;9.91;77.17
79198;BME280;68628;48.714;9.472;2023-04-24T08:01:04;97277.25;;;9.91;77.03
79198;BME280;68628;48.714;9.472;2023-04-24T08:03:30;97281.53;;;9.98;76.88
79198;BME280;68628;48.714;9.472;2023-04-24T08:05:56;97285.13;;;10.26;74.64
79198;BME280;68628;48.714;9.472;2023-04-24T08:08:22;97289.44;;;11.82;72.33
79198;BME280;68628;48.714;9.472;2023-04-24T08:10:49;97295.94;;;12.97;65.99
79198;BME280;68628;48.714;9.472;2023-04-24T08:13:15;97289.81;;;14.23;64.02
79198;BME280;68628;48.714;9.472;2023-04-24T08:15:41;97291.38;;;13.69;65.67
79198;BME280;68628;48.714;9.472;2023-04-24T08:18:07;97290.34;;;13.70;61.43
79198;BME280;68628;48.714;9.472;2023-04-24T08:20:32;97295.53;;;13.32;63.12
79198;BME280;68628;48.714;9.472;2023-04-24T08:22:58;97296.84;;;14.85;64.32
79198;BME280;68628;48.714;9.472;2023-04-24T08:25:24;97299.81;;;13.84;61.80
79198;BME280;68628;48.714;9.472;2023-04-24T08:27:50;97299.69;;;12.83;63.12
79198;BME280;68628;48.714;9.472;2023-04-24T08:30:17;97304.19;;;13.14;63.53
79198;BME280;68628;48.714;9.472;2023-04-24T08:32:43;97308.28;;;13.10;61.43
79198;BME280;68628;48.714;9.472;2023-04-24T08:35:09;97316.47;;;11.98;59.97
79198;BME280;68628;48.714;9.472;2023-04-24T08:37:36;97317.66;;;11.89;62.51
79198;BME280;68628;48.714;9.472;2023-04-24T08:40:13;97317.06;;;11.53;59.83
79198;BME280;68628;48.714;9.472;2023-04-24T08:42:42;97308.75;;;11.43;61.96
79198;BME280;68628;48.714;9.472;2023-04-24T08:45:10;97323.53;;;11.77;63.18
79198;BME280;68628;48.714;9.472;2023-04-24T08:47:39;97330.69;;;11.37;61.77
79198;BME280;68628;48.714;9.472;2023-04-24T08:50:06;97332.69;;;11.21;62.40
79198;BME280;68628;48.714;9.472;2023-04-24T08:52:34;97326.75;;;10.99;63.35
79198;BME280;68628;48.714;9.472;2023-04-24T08:55:01;97333.91;;;11.25;62.37
79198;BME280;68628;48.714;9.472;2023-04-24T08:57:28;97342.41;;;11.14;62.00
79198;BME280;68628;48.714;9.472;2023-04-24T08:59:56;97337.53;;;11.17;64.13
79198;BME280;68628;48.714;9.472;2023-04-24T09:02:23;97341.44;;;11.48;62.22
79198;BME280;68628;48.714;9.472;2023-04-24T09:04:51;97335.72;;;12.77;60.91
79198;BME280;68628;48.714;9.472;2023-04-24T09:07:19;97338.03;;;14.32;52.70
79198;BME280;68628;48.714;9.472;2023-04-24T09:09:51;97334.16;;;15.02;52.52
79198;BME280;68628;48.714;9.472;2023-04-24T09:12:17;97335.31;;;13.76;54.26
79198;BME280;68628;48.714;9.472;2023-04-24T09:14:45;97330.72;;;13.01;51.54
79198;BME280;68628;48.714;9.472;2023-04-24T09:17:11;97343.63;;;13.80;51.34
79198;BME280;68628;48.714;9.472;2023-04-24T09:19:37;97319.75;;;14.61;54.63
79198;BME280;68628;48.714;9.472;2023-04-24T09:22:07;97323.78;;;15.55;50.90
79198;BME280;68628;48.714;9.472;2023-04-24T09:24:34;97322.50;;;14.54;51.25
79198;BME280;68628;48.714;9.472;2023-04-24T09:27:00;97334.75;;;14.74;49.95
79198;BME280;68628;48.714;9.472;2023-04-24T09:29:27;97336.25;;;14.07;47.75
79198;BME280;68628;48.714;9.472;2023-04-24T09:31:53;97340.59;;;13.19;51.40
79198;BME280;68628;48.714;9.472;2023-04-24T09:34:24;97339.25;;;13.67;51.59
79198;BME280;68628;48.714;9.472;2023-04-24T09:36:52;97340.91;;;13.29;53.59
79198;BME280;68628;48.714;9.472;2023-04-24T09:39:19;97343.53;;;13.43;52.29
79198;BME280;68628;48.714;9.472;2023-04-24T09:41:48;97350.31;;;14.08;49.74
79198;BME280;68628;48.714;9.472;2023-04-24T09:44:26;97341.47;;;13.70;49.22
79198;BME280;68628;48.714;9.472;2023-04-24T09:47:00;97355.28;;;13.97;49.39
79198;BME280;68628;48.714;9.472;2023-04-24T09:49:27;97355.78;;;13.62;50.00
79198;BME280;68628;48.714;9.472;2023-04-24T09:52:04;97348.38;;;13.46;49.26
79198;BME280;68628;48.714;9.472;2023-04-24T09:54:30;97354.88;;;14.93;45.41
79198;BME280;68628;48.714;9.472;2023-04-24T09:56:56;97353.41;;;16.94;40.81
79198;BME280;68628;48.714;9.472;2023-04-24T09:59:22;97350.94;;;17.84;40.29
79198;BME280;68628;48.714;9.472;2023-04-24T10:01:49;97342.66;;;16.77;39.28
79198;BME280;68628;48.714;9.472;2023-04-24T10:04:26;97357.09;;;16.93;38.57
79198;BME280;68628;48.714;9.472;2023-04-24T10:06:55;97362.47;;;15.51;39.87
79198;BME280;68628;48.714;9.472;2023-04-24T10:09:24;97368.06;;;15.42;40.86
79198;BME280;68628;48.714;9.472;2023-04-24T10:11:52;97355.94;;;15.04;39.75
79198;BME280;68628;48.714;9.472;2023-04-24T10:14:21;97342.81;;;14.60;42.33
79198;BME280;68628;48.714;9.472;2023-04-24T10:16:53;97342.34;;;15.85;40.33
79198;BME280;68628;48.714;9.472;2023-04-24T10:19:25;97346.34;;;16.35;39.53
79198;BME280;68628;48.714;9.472;2023-04-24T10:21:52;97349.66;;;15.71;38.07
79198;BME280;68628;48.714;9.472;2023-04-24T10:24:19;97351.00;;;15.92;40.25
79198;BME280;68628;48.714;9.472;2023-04-24T10:26:48;97365.06;;;14.41;41.70
79198;BME280;68628;48.714;9.472;2023-04-24T10:29:16;97358.63;;;13.86;42.56
79198;BME280;68628;48.714;9.472;2023-04-24T10:31:44;97364.69;;;13.43;42.25
79198;BME280;68628;48.714;9.472;2023-04-24T10:34:15;97365.88;;;12.63;44.97
79198;BME280;68628;48.714;9.472;2023-04-24T10:36:47;97376.22;;;13.16;45.53
79198;BME280;68628;48.714;9.472;2023-04-24T10:39:16;97382.06;;;14.52;43.68
79198;BME280;68628;48.714;9.472;2023-04-24T10:41:44;97381.34;;;15.42;41.61
79198;BME280;68628;48.714;9.472;2023-04-24T10:44:15;97397.72;;;15.70;38.81
79198;BME280;68628;48.714;9.472;2023-04-24T10:46:46;97386.88;;;16.66;38.15
79198;BME280;68628;48.714;9.472;2023-04-24T10:49:14;97381.59;;;17.53;36.41
79198;BME280;68628;48.714;9.472;2023-04-24T10:54:23;97381.06;;;17.68;36.52
79198;BME280;68628;48.714;9.472;2023-04-24T10:56:51;97382.56;;;17.63;35.40
79198;BME280;68628;48.714;9.472;2023-04-24T10:59:25;97393.97;;;16.01;38.21
79198;BME280;68628;48.714;9.472;2023-04-24T11:01:55;97386.81;;;16.25;38.54
79198;BME280;68628;48.714;9.472;2023-04-24T11:04:33;97398.66;;;14.65;39.62
79198;BME280;68628;48.714;9.472;2023-04-24T11:07:00;97402.03;;;14.91;41.17
79198;BME280;68628;48.714;9.472;2023-04-24T11:09:30;97412.59;;;15.28;39.80
79198;BME280;68628;48.714;9.472;2023-04-24T11:12:06;97414.72;;;14.71;41.28
79198;BME280;68628;48.714;9.472;2023-04-24T11:17:31;97426.19;;;12.86;45.54
79198;BME280;68628;48.714;9.472;2023-04-24T11:20:07;97431.19;;;13.08;44.05
79198;BME280;68628;48.714;9.472;2023-04-24T11:22:38;97437.50;;;13.52;44.27
79198;BME280;68628;48.714;9.472;2023-04-24T11:25:08;97439.44;;;13.25;45.60
79198;BME280;68628;48.714;9.472;2023-04-24T11:27:44;97451.66;;;12.60;47.55
79198;BME280;68628;48.714;9.472;2023-04-24T11:30:12;97440.34;;;12.40;47.97
79198;BME280;68628;48.714;9.472;2023-04-24T11:32:42;97463.69;;;12.36;47.25
79198;BME280;68628;48.714;9.472;2023-04-24T11:35:13;97454.50;;;11.85;48.34
79198;BME280;68628;48.714;9.472;2023-04-24T11:37:52;97459.59;;;11.80;47.78
79198;BME280;68628;48.714;9.472;2023-04-24T11:40:20;97463.84;;;11.74;48.61
79198;BME280;68628;48.714;9.472;2023-04-24T11:42:52;97456.31;;;11.51;49.50
79198;BME280;68628;48.714;9.472;2023-04-24T11:45:27;97449.66;;;11.75;51.09
79198;BME280;68628;48.714;9.472;2023-04-24T11:47:55;97454.72;;;11.77;49.77
79198;BME280;68628;48.714;9.472;2023-04-24T11:50:24;97461.38;;;11.46;49.93
79198;BME280;68628;48.714;9.472;2023-04-24T11:52:51;97466.06;;;11.77;50.21
79198;BME280;68628;48.714;9.472;2023-04-24T11:57:45;97469.34;;;11.93;50.79
79198;BME280;68628;48.714;9.472;2023-04-24T12:02:44;97471.84;;;12.21;49.80
79198;BME280;68628;48.714;9.472;2023-04-24T12:05:22;97475.41;;;11.66;50.15
79198;BME280;68628;48.714;9.472;2023-04-24T12:07:49;97486.16;;;11.58;50.36
79198;BME280;68628;48.714;9.472;2023-04-24T12:10:20;97477.66;;;11.76;50.97
79198;BME280;68628;48.714;9.472;2023-04-24T12:12:47;97476.81;;;11.69;51.22
79198;BME280;68628;48.714;9.472;2023-04-24T12:15:16;97482.50;;;11.66;51.14
79198;BME280;68628;48.714;9.472;2023-04-24T12:17:42;97483.56;;;11.92;51.05
79198;BME280;68628;48.714;9.472;2023-04-24T12:20:09;97482.75;;;11.91;51.57
79198;BME280;68628;48.714;9.472;2023-04-24T12:22:46;97490.94;;;12.16;50.31
79198;BME280;68628;48.714;9.472;2023-04-24T12:25:19;97493.16;;;12.26;51.08
79198;BME280;68628;48.714;9.472;2023-04-24T12:27:53;97485.84;;;12.08;49.34
79198;BME280;68628;48.714;9.472;2023-04-24T12:30:25;97489.91;;;12.44;48.84
79198;BME280;68628;48.714;9.472;2023-04-24T12:32:54;97489.81;;;12.98;48.97
79198;BME280;68628;48.714;9.472;2023-04-24T12:35:23;97478.06;;;12.74;48.78
79198;BME280;68628;48.714;9.472;2023-04-24T12:37:50;97481.25;;;13.03;48.54
79198;BME280;68628;48.714;9.472;2023-04-24T12:40:17;97483.22;;;12.28;48.45
79198;BME280;68628;48.714;9.472;2023-04-24T12:42:47;97473.03;;;12.45;48.63
79198;BME280;68628;48.714;9.472;2023-04-24T12:45:15;97483.41;;;12.27;49.56
79198;BME280;68628;48.714;9.472;2023-04-24T12:47:43;97476.59;;;11.50;49.55
79198;BME280;68628;48.714;9.472;2023-04-24T12:50:12;97484.00;;;11.95;50.52
79198;BME280;68628;48.714;9.472;2023-04-24T12:52:40;97486.66;;;11.95;50.85
79198;BME280;68628;48.714;9.472;2023-04-24T12:55:07;97494.44;;;11.42;50.81
79198;BME280;68628;48.714;9.472;2023-04-24T12:57:35;97491.47;;;11.92;51.72
79198;BME280;68628;48.714;9.472;2023-04-24T13:00:06;97480.94;;;12.65;50.05
79198;BME280;68628;48.714;9.472;2023-04-24T13:02:33;97492.13;;;12.68;49.78
79198;BME280;68628;48.714;9.472;2023-04-24T13:05:00;97477.47;;;12.72;48.56
79198;BME280;68628;48.714;9.472;2023-04-24T13:07:26;97476.81;;;12.83;49.38
79198;BME280;68628;48.714;9.472;2023-04-24T13:09:53;97472.97;;;12.79;48.39
79198;BME280;68628;48.714;9.472;2023-04-24T13:12:21;97483.00;;;12.43;49.13